createdAt,value
2022-12-01T00:03:34.836Z,102401.38
2022-12-01T00:08:40.520Z,102401.82
2022-12-01T00:13:45.965Z,102397.41
2022-12-01T00:18:53.763Z,102397.41
2022-12-01T00:23:59.900Z,102402.70
2022-12-01T00:29:05.602Z,102399.62
2022-12-01T00:34:14.038Z,102403.54
2022-12-01T00:39:19.427Z,102402.20
2022-12-01T00:44:24.815Z,102396.47
2022-12-01T00:49:30.442Z,102394.73
2022-12-01T00:54:35.830Z,102393.40
2022-12-01T00:59:41.496Z,102397.80
2022-12-01T01:04:46.881Z,102400.45
2022-12-01T01:09:52.275Z,102403.55
2022-12-01T01:14:57.736Z,102404.41
2022-12-01T01:20:04.780Z,102402.16
2022-12-01T01:25:10.575Z,102406.13
2022-12-01T01:30:16.709Z,102412.73
2022-12-01T01:35:22.095Z,102402.60
2022-12-01T01:40:27.478Z,102399.08
2022-12-01T01:45:33.277Z,102400.37
2022-12-01T01:50:39.382Z,102397.30
2022-12-01T01:55:45.980Z,102398.16
2022-12-01T02:00:51.473Z,102393.70
2022-12-01T02:06:00.544Z,102394.58
2022-12-01T02:11:07.981Z,102398.61
2022-12-01T02:16:19.327Z,102400.84
2022-12-01T02:21:36.696Z,102394.64
2022-12-01T02:26:54.280Z,102394.22
2022-12-01T02:32:32.773Z,102399.05
2022-12-01T02:37:59.022Z,102396.87
2022-12-01T02:43:22.555Z,102400.40
2022-12-01T02:48:39.765Z,102383.25
2022-12-01T02:53:45.666Z,102393.39
2022-12-01T02:58:51.801Z,102389.41
2022-12-01T03:04:14.698Z,102392.50
2022-12-01T03:09:32.347Z,102390.30
2022-12-01T03:14:58.845Z,102390.74
2022-12-01T03:20:11.857Z,102395.15
2022-12-01T03:25:19.098Z,102392.06
2022-12-01T03:30:30.096Z,102397.30
2022-12-01T03:35:38.574Z,102395.52
2022-12-01T03:40:46.148Z,102396.41
2022-12-01T03:46:06.637Z,102391.68
2022-12-01T03:51:16.164Z,102388.99
2022-12-01T03:56:24.724Z,102397.41
2022-12-01T04:01:34.983Z,102391.23
2022-12-01T04:06:43.745Z,102393.39
2022-12-01T04:12:07.006Z,102397.37
2022-12-01T04:17:12.390Z,102395.16
2022-12-01T04:22:17.777Z,102403.14
2022-12-01T04:27:23.162Z,102401.78
2022-12-01T04:32:28.715Z,102404.86
2022-12-01T04:37:34.270Z,102394.32
2022-12-01T04:42:39.832Z,102407.55
2022-12-01T04:47:45.358Z,102408.88
2022-12-01T04:52:50.766Z,102406.70
2022-12-01T04:57:56.429Z,102412.41
2022-12-01T05:03:02.250Z,102413.69
2022-12-01T05:08:07.891Z,102417.69
2022-12-01T05:13:13.451Z,102418.13
2022-12-01T05:18:18.937Z,102422.55
2022-12-01T05:23:29.667Z,102422.95
2022-12-01T05:28:35.961Z,102411.05
2022-12-01T05:33:41.752Z,102411.96
2022-12-01T05:38:47.227Z,102415.88
2022-12-01T05:43:52.785Z,102412.31
2022-12-01T05:48:58.177Z,102415.38
2022-12-01T05:54:03.841Z,102425.09
2022-12-01T05:59:09.243Z,102436.55
2022-12-01T06:04:14.761Z,102436.55
2022-12-01T06:09:20.178Z,102433.86
2022-12-01T06:14:25.640Z,102432.09
2022-12-01T06:19:31.739Z,102431.66
2022-12-01T06:24:37.123Z,102438.70
2022-12-01T06:29:42.575Z,102445.33
2022-12-01T06:34:47.984Z,102446.64
2022-12-01T06:39:53.446Z,102455.91
2022-12-01T06:44:59.056Z,102451.04
2022-12-01T06:50:07.027Z,102456.30
2022-12-01T06:55:12.436Z,102458.98
2022-12-01T07:00:18.928Z,102459.82
2022-12-01T07:05:24.496Z,102460.70
2022-12-01T07:10:29.884Z,102464.67
2022-12-01T07:15:35.275Z,102464.72
2022-12-01T07:20:43.203Z,102467.81
2022-12-01T07:25:48.939Z,102461.20
2022-12-01T07:30:54.407Z,102468.71
2022-12-01T07:36:00.303Z,102462.53
2022-12-01T07:41:08.015Z,102462.53
2022-12-01T07:46:22.300Z,102470.02
2022-12-01T07:51:25.492Z,102467.37
2022-12-01T07:56:31.052Z,102472.25
2022-12-01T08:01:40.279Z,102470.47
2022-12-01T08:06:43.737Z,102473.16
2022-12-01T08:11:49.132Z,102478.02
2022-12-01T08:16:54.518Z,102470.47
2022-12-01T08:21:59.909Z,102470.47
2022-12-01T08:27:05.391Z,102467.83
2022-12-01T08:32:10.820Z,102476.20
2022-12-01T08:37:16.284Z,102476.20
2022-12-01T08:42:21.854Z,102481.06
2022-12-01T08:47:29.890Z,102482.38
2022-12-01T08:52:35.864Z,102482.77
2022-12-01T08:57:41.252Z,102490.41
2022-12-01T09:02:47.054Z,102486.54
2022-12-01T09:07:54.256Z,102494.49
2022-12-01T09:12:59.887Z,102498.91
2022-12-01T09:18:06.791Z,102501.05
2022-12-01T09:23:12.237Z,102497.94
2022-12-01T09:28:18.186Z,102496.17
2022-12-01T09:33:23.645Z,102493.51
2022-12-01T09:38:31.576Z,102487.33
2022-12-01T09:43:45.998Z,102490.39
2022-12-01T09:48:54.731Z,102477.52
2022-12-01T09:54:02.007Z,102485.02
2022-12-01T09:59:10.418Z,102484.95
2022-12-01T10:04:18.854Z,102474.43
2022-12-01T10:09:30.374Z,102475.86
2022-12-01T10:14:38.203Z,102474.83
2022-12-01T10:20:07.762Z,102474.83
2022-12-01T10:25:16.270Z,102466.85
2022-12-01T10:30:23.951Z,102465.91
2022-12-01T10:35:37.208Z,102449.16
2022-12-01T10:40:44.332Z,102449.16
2022-12-01T10:45:52.091Z,102447.33
2022-12-01T10:51:00.627Z,102451.36
2022-12-01T10:56:21.636Z,102444.63
2022-12-01T11:01:34.469Z,102441.55
2022-12-01T11:06:41.687Z,102439.79
2022-12-01T11:11:47.887Z,102430.02
2022-12-01T11:16:54.671Z,102430.02
2022-12-01T11:22:03.297Z,102437.45
2022-12-01T11:27:11.816Z,102441.96
2022-12-01T11:32:23.414Z,102412.73
2022-12-01T11:37:41.990Z,102425.91
2022-12-01T11:42:53.089Z,102425.91
2022-12-01T11:48:27.415Z,102422.80
2022-12-01T11:53:38.505Z,102421.46
2022-12-01T11:58:46.007Z,102422.35
2022-12-01T12:04:13.584Z,102429.84
2022-12-01T12:09:30.743Z,102428.42
2022-12-01T12:14:51.403Z,102423.95
2022-12-01T12:20:08.574Z,102426.17
2022-12-01T12:25:23.054Z,102420.02
2022-12-01T12:30:31.856Z,102413.23
2022-12-01T12:35:43.488Z,102411.46
2022-12-01T12:41:08.640Z,102410.22
2022-12-01T12:46:17.121Z,102404.50
2022-12-01T12:51:43.457Z,102407.59
2022-12-01T12:56:51.941Z,102400.03
2022-12-01T13:02:00.527Z,102406.20
2022-12-01T13:07:09.140Z,102400.91
2022-12-01T13:12:20.914Z,102403.17
2022-12-01T13:17:29.726Z,102396.39
2022-12-01T13:22:37.229Z,102403.59
2022-12-01T13:27:45.435Z,102404.88
2022-12-01T13:32:52.953Z,102398.25
2022-12-01T13:38:16.526Z,102403.92
2022-12-01T13:43:24.131Z,102406.26
2022-12-01T13:48:41.828Z,102404.22
2022-12-01T13:54:05.358Z,102415.19
2022-12-01T13:59:41.944Z,102411.62
2022-12-01T14:04:47.840Z,102406.74
2022-12-01T14:09:59.909Z,102406.74
2022-12-01T14:15:08.464Z,102418.34
2022-12-01T14:20:23.023Z,102416.77
2022-12-01T14:25:30.940Z,102410.64
2022-12-01T14:30:49.997Z,102414.12
2022-12-01T14:35:57.010Z,102407.62
2022-12-01T14:41:04.247Z,102403.20
2022-12-01T14:46:12.734Z,102404.05
2022-12-01T14:51:30.277Z,102405.39
2022-12-01T14:56:37.520Z,102402.28
2022-12-01T15:01:43.143Z,102397.88
2022-12-01T15:06:50.401Z,102404.20
2022-12-01T15:11:58.806Z,102407.73
2022-12-01T15:17:05.877Z,102410.86
2022-12-01T15:22:17.033Z,102411.79
2022-12-01T15:27:31.306Z,102411.78
2022-12-01T15:32:38.404Z,102404.41
2022-12-01T15:37:45.652Z,102402.66
2022-12-01T15:43:06.153Z,102408.41
2022-12-01T15:48:25.854Z,102385.38
2022-12-01T15:53:33.891Z,102396.41
2022-12-01T15:58:45.288Z,102396.88
2022-12-01T16:04:03.870Z,102396.88
2022-12-01T16:09:21.464Z,102395.09
2022-12-01T16:14:26.862Z,102379.14
2022-12-01T16:19:36.092Z,102379.14
2022-12-01T16:24:50.585Z,102380.39
2022-12-01T16:30:02.162Z,102391.00
2022-12-01T16:35:09.981Z,102386.08
2022-12-01T16:40:18.403Z,102393.61
2022-12-01T16:45:25.491Z,102387.41
2022-12-01T16:50:30.920Z,102383.03
2022-12-01T16:55:57.152Z,102392.33
2022-12-01T17:01:02.657Z,102389.27
2022-12-01T17:06:08.686Z,102399.43
2022-12-01T17:11:14.222Z,102396.83
2022-12-01T17:16:19.972Z,102392.77
2022-12-01T17:21:25.386Z,102392.77
2022-12-01T17:26:30.794Z,102390.20
2022-12-01T17:31:36.298Z,102395.55
2022-12-01T17:36:41.954Z,102395.05
2022-12-01T17:41:47.358Z,102389.34
2022-12-01T17:46:53.201Z,102390.23
2022-12-01T17:51:58.952Z,102394.67
2022-12-01T17:57:04.445Z,102396.88
2022-12-01T18:02:13.193Z,102392.70
2022-12-01T18:07:18.616Z,102391.11
2022-12-01T18:12:24.537Z,102390.20
2022-12-01T18:17:30.036Z,102391.08
2022-12-01T18:22:35.432Z,102387.19
2022-12-01T18:27:40.892Z,102382.85
2022-12-01T18:32:46.283Z,102387.27
2022-12-01T18:37:51.754Z,102379.36
2022-12-01T18:42:57.136Z,102387.30
2022-12-01T18:48:04.045Z,102373.72
2022-12-01T18:53:10.338Z,102375.02
2022-12-01T18:58:15.731Z,102387.05
2022-12-01T19:03:21.512Z,102385.83
2022-12-01T19:08:26.968Z,102394.28
2022-12-01T19:13:34.064Z,102386.89
2022-12-01T19:18:40.779Z,102386.89
2022-12-01T19:23:47.228Z,102385.13
2022-12-01T19:28:52.793Z,102390.42
2022-12-01T19:33:58.329Z,102383.35
2022-12-01T19:39:07.501Z,102382.95
2022-12-01T19:44:12.112Z,102384.30
2022-12-01T19:49:17.686Z,102389.13
2022-12-01T19:54:23.282Z,102386.47
2022-12-01T19:59:28.746Z,102396.14
2022-12-01T20:04:34.448Z,102396.14
2022-12-01T20:09:44.337Z,102397.00
2022-12-01T20:14:49.412Z,102397.02
2022-12-01T20:19:55.425Z,102399.27
2022-12-01T20:25:00.815Z,102396.65
2022-12-01T20:30:07.892Z,102397.05
2022-12-01T20:35:13.352Z,102397.05
2022-12-01T20:40:18.886Z,102401.48
2022-12-01T20:45:24.365Z,102406.81
2022-12-01T20:50:29.782Z,102389.53
2022-12-01T20:55:37.166Z,102393.06
2022-12-01T21:00:47.398Z,102393.06
2022-12-01T21:05:52.892Z,102393.52
2022-12-01T21:10:58.288Z,102393.52
2022-12-01T21:16:09.578Z,102397.03
2022-12-01T21:21:15.476Z,102397.88
2022-12-01T21:26:20.983Z,102389.50
2022-12-01T21:31:27.458Z,102393.97
2022-12-01T21:36:34.168Z,102396.14
2022-12-01T21:41:39.940Z,102397.48
2022-12-01T21:46:47.913Z,102390.97
2022-12-01T21:51:54.139Z,102390.53
2022-12-01T21:57:00.607Z,102396.66
2022-12-01T22:02:09.215Z,102386.95
2022-12-01T22:07:16.211Z,102386.95
2022-12-01T22:12:27.614Z,102381.64
2022-12-01T22:17:33.285Z,102375.45
2022-12-01T22:22:40.252Z,102371.90
2022-12-01T22:27:45.741Z,102371.96
2022-12-01T22:33:04.433Z,102368.34
2022-12-01T22:38:21.918Z,102365.71
2022-12-01T22:43:46.788Z,102365.71
2022-12-01T22:49:16.408Z,102364.03
2022-12-01T22:54:27.545Z,102368.00
2022-12-01T22:59:38.893Z,102365.33
2022-12-01T23:04:45.209Z,102357.39
2022-12-01T23:09:50.741Z,102360.52
2022-12-01T23:14:59.306Z,102348.59
2022-12-01T23:20:13.469Z,102349.51
2022-12-01T23:25:20.874Z,102341.03
2022-12-01T23:30:26.511Z,102338.39
2022-12-01T23:35:34.170Z,102336.62
2022-12-01T23:40:40.351Z,102337.50
2022-12-01T23:45:46.850Z,102335.24
2022-12-01T23:50:54.380Z,102334.35
2022-12-01T23:56:02.859Z,102334.02
